Cou Falls, Iowa
Current Conditions -  °F | °C
As of 3:52 AM on Saturday 20 Dec 2014 (Local Time) from KCID Reporting Station
Overcast Overcast  
Wind Chill: 23°   Ceiling: 2000
Heat Index: 29°   Visibility: 7mi
Dew Point: 24°   Wind: 6mph
Humidity: 82%   Direction: 140°SE
Pressure: 30.21"   Gusts: NA
Location:  41.8309°N, 91.7193°W
Report Text: KCID 200952Z AUTO 14005KT 7SM OVC020 M02/M04 A3021 RMK AO2 SLP238 T10171044 $
Loading
Personal Weather Stations






























Interactive Weather Map New forecast layout! Learn more

10-Day Weather Forecast

Advertisements
Track Severe Weather on mobile